Time;durP1;ratioP1;P1;durP2;ratioP2;P2;SDS_P1;SDS_P2;PMS_P1;PMS_P2;Temp;Humidity;BMP_temperature;BMP_pressure;BME280_temperature;BME280_humidity;BME280_pressure;Samples;Min_cycle;Max_cycle;Signal;HPM_P1;HPM_P2
2023/05/26 03:57:31;;;;;;;;;;;8.90;99.90;;;;;;5204069;23;19923;-68
2023/05/26 03:59:57;;;;;;;;;;;8.90;99.90;;;;;;4900507;29;19924;-67
2023/05/26 04:02:24;;;;;;;;;;;9.00;99.90;;;;;;4902681;29;19923;-67
2023/05/26 04:04:50;;;;;;;;;;;9.10;99.90;;;;;;4902765;29;19927;-68
2023/05/26 04:07:17;;;;;;;;;;;9.20;99.90;;;;;;4914482;29;20334;-68
2023/05/26 04:09:43;;;;;;;;;;;9.60;99.90;;;;;;4921859;29;19994;-70
2023/05/26 04:12:10;;;;;;;;;;;10.00;99.90;;;;;;4921281;29;19923;-72
2023/05/26 04:14:38;;;;;;;;;;;10.40;99.90;;;;;;4921048;29;19923;-72
2023/05/26 04:17:04;;;;;;;;;;;10.90;99.90;;;;;;4921161;29;19930;-72
2023/05/26 04:19:31;;;;;;;;;;;11.40;99.90;;;;;;4921065;29;20386;-72
2023/05/26 04:21:58;;;;;;;;;;;11.80;99.90;;;;;;4921128;29;19954;-71
2023/05/26 04:24:26;;;;;;;;;;;12.20;99.90;;;;;;4921347;29;19923;-71
2023/05/26 04:26:52;;;;;;;;;;;12.70;99.90;;;;;;4921049;29;19929;-71
2023/05/26 04:29:20;;;;;;;;;;;13.10;99.90;;;;;;4921129;29;19927;-71
2023/05/26 04:31:48;;;;;;;;;;;13.50;99.90;;;;;;4921124;29;19923;-71
2023/05/26 04:34:14;;;;;;;;;;;13.80;99.90;;;;;;4921071;29;19953;-71
2023/05/26 04:36:41;;;;;;;;;;;14.30;99.90;;;;;;4922290;29;19930;-70
2023/05/26 04:39:07;;;;;;;;;;;14.70;99.90;;;;;;4921139;29;19923;-71
2023/05/26 04:41:34;;;;;;;;;;;15.30;99.90;;;;;;4920964;29;19923;-70
2023/05/26 04:44:01;;;;;;;;;;;16.00;99.90;;;;;;4920929;29;20331;-70
2023/05/26 04:46:29;;;;;;;;;;;16.60;99.90;;;;;;4921265;29;19923;-70
2023/05/26 04:48:57;;;;;;;;;;;17.00;99.90;;;;;;4922519;29;20379;-71
2023/05/26 04:51:24;;;;;;;;;;;17.50;99.90;;;;;;4923650;29;19923;-69
2023/05/26 04:53:51;;;;;;;;;;;18.00;99.90;;;;;;4921202;29;19930;-70
2023/05/26 04:56:17;;;;;;;;;;;18.50;99.90;;;;;;4920823;29;19922;-67
2023/05/26 04:58:44;;;;;;;;;;;19.10;99.90;;;;;;4920971;29;20363;-70
2023/05/26 05:01:10;;;;;;;;;;;19.60;99.90;;;;;;4921630;29;19923;-67
2023/05/26 05:03:37;;;;;;;;;;;20.10;99.50;;;;;;4921272;29;19922;-70
2023/05/26 05:06:05;;;;;;;;;;;20.50;92.90;;;;;;4920952;29;19927;-68
2023/05/26 05:08:32;;;;;;;;;;;20.50;82.00;;;;;;4920818;29;19923;-68
2023/05/26 05:10:58;;;;;;;;;;;20.80;81.40;;;;;;4920334;29;19930;-68
2023/05/26 05:13:25;;;;;;;;;;;20.90;69.30;;;;;;4920479;29;20335;-70
2023/05/26 05:15:51;;;;;;;;;;;20.80;75.50;;;;;;4920277;29;20379;-71
2023/05/26 05:18:18;;;;;;;;;;;21.10;78.20;;;;;;4920486;29;19927;-71
2023/05/26 05:20:44;;;;;;;;;;;21.50;68.50;;;;;;4920305;29;19927;-71
2023/05/26 05:23:12;;;;;;;;;;;21.80;65.40;;;;;;4920421;29;19930;-71
2023/05/26 05:25:39;;;;;;;;;;;21.60;59.60;;;;;;4920068;29;19923;-71
2023/05/26 05:28:05;;;;;;;;;;;21.60;59.10;;;;;;4920217;29;20272;-71
2023/05/26 05:30:32;;;;;;;;;;;21.70;61.90;;;;;;4920489;29;20397;-70
2023/05/26 05:32:58;;;;;;;;;;;22.00;58.90;;;;;;4919983;29;19930;-70
2023/05/26 05:35:25;;;;;;;;;;;22.30;58.70;;;;;;4920011;29;19970;-70
2023/05/26 05:37:55;;;;;;;;;;;22.80;55.50;;;;;;4919940;29;19930;-70
2023/05/26 05:40:23;;;;;;;;;;;23.10;55.40;;;;;;4919937;29;19970;-70
2023/05/26 05:42:50;;;;;;;;;;;23.40;52.80;;;;;;4919830;29;19986;-70
2023/05/26 05:45:17;;;;;;;;;;;23.20;52.30;;;;;;4919526;29;19923;-70
2023/05/26 05:47:43;;;;;;;;;;;23.30;54.00;;;;;;4919773;29;19923;-70
2023/05/26 05:50:10;;;;;;;;;;;23.70;51.00;;;;;;4919445;29;20378;-71
2023/05/26 05:52:36;;;;;;;;;;;24.00;52.80;;;;;;4919716;29;19930;-71
2023/05/26 05:55:03;;;;;;;;;;;24.40;51.90;;;;;;4919705;29;19930;-71
2023/05/26 05:57:31;;;;;;;;;;;25.40;53.80;;;;;;4919601;29;19974;-70
2023/05/26 05:59:57;;;;;;;;;;;26.10;49.80;;;;;;4919498;29;20003;-70
2023/05/26 06:02:24;;;;;;;;;;;26.40;46.90;;;;;;4919454;29;19927;-70
2023/05/26 06:04:50;;;;;;;;;;;26.40;47.00;;;;;;4919400;29;19923;-70
2023/05/26 06:07:17;;;;;;;;;;;27.00;47.50;;;;;;4919312;29;19927;-70
2023/05/26 06:09:43;;;;;;;;;;;27.00;47.30;;;;;;4918927;29;20296;-70
2023/05/26 06:12:10;;;;;;;;;;;27.90;44.30;;;;;;4918822;29;20383;-70
2023/05/26 06:14:38;;;;;;;;;;;28.20;46.10;;;;;;4919635;29;19939;-70
2023/05/26 06:17:05;;;;;;;;;;;29.00;44.40;;;;;;4919030;29;19958;-71
2023/05/26 06:19:31;;;;;;;;;;;29.30;48.90;;;;;;4919074;29;19958;-71
2023/05/26 06:21:58;;;;;;;;;;;30.00;45.20;;;;;;4918511;29;19923;-71
2023/05/26 06:24:24;;;;;;;;;;;30.40;43.40;;;;;;4919021;29;19927;-71
2023/05/26 06:26:51;;;;;;;;;;;31.10;44.30;;;;;;4918902;29;19946;-72
2023/05/26 06:29:18;;;;;;;;;;;31.80;42.60;;;;;;4918619;29;20402;-72
2023/05/26 06:31:46;;;;;;;;;;;32.20;41.80;;;;;;4918791;29;19923;-72
2023/05/26 06:34:12;;;;;;;;;;;32.80;41.30;;;;;;4918811;29;19923;-72
2023/05/26 06:36:39;;;;;;;;;;;32.80;39.60;;;;;;4918723;29;19923;-72
2023/05/26 06:39:06;;;;;;;;;;;32.50;41.10;;;;;;4918919;29;19930;-72
2023/05/26 06:41:33;;;;;;;;;;;32.90;40.10;;;;;;4918998;29;19966;-72
2023/05/26 06:43:59;;;;;;;;;;;32.60;41.10;;;;;;4918620;29;19922;-72
2023/05/26 06:46:26;;;;;;;;;;;33.00;41.10;;;;;;4918269;29;20383;-72
2023/05/26 06:48:53;;;;;;;;;;;33.60;39.70;;;;;;4918552;29;20000;-71
2023/05/26 06:51:20;;;;;;;;;;;33.40;39.50;;;;;;4918465;29;19930;-71
2023/05/26 06:53:47;;;;;;;;;;;33.10;37.70;;;;;;4918740;29;19974;-73
2023/05/26 06:56:13;;;;;;;;;;;32.50;37.70;;;;;;4918351;29;19974;-72
2023/05/26 06:58:40;;;;;;;;;;;32.30;38.50;;;;;;4918190;29;19930;-71
2023/05/26 07:01:06;;;;;;;;;;;32.30;38.80;;;;;;4918423;29;19978;-71
2023/05/26 07:03:33;;;;;;;;;;;32.10;38.00;;;;;;4918389;29;19930;-72
2023/05/26 07:06:02;;;;;;;;;;;31.80;38.60;;;;;;4918441;29;19923;-72
2023/05/26 07:08:29;;;;;;;;;;;31.80;39.30;;;;;;4918239;29;19923;-72
2023/05/26 07:10:55;;;;;;;;;;;31.30;40.10;;;;;;4918114;29;19982;-72
2023/05/26 07:13:22;;;;;;;;;;;31.80;39.20;;;;;;4918095;29;19923;-71
2023/05/26 07:15:48;;;;;;;;;;;31.70;39.20;;;;;;4918029;29;20328;-72
2023/05/26 07:18:15;;;;;;;;;;;32.20;39.10;;;;;;4918068;29;19974;-72
2023/05/26 07:20:41;;;;;;;;;;;32.40;39.30;;;;;;4917703;29;20387;-72
2023/05/26 07:23:09;;;;;;;;;;;33.00;36.90;;;;;;4917829;29;19923;-72
2023/05/26 07:25:36;;;;;;;;;;;33.10;37.60;;;;;;4918084;29;19923;-72
2023/05/26 07:28:02;;;;;;;;;;;33.40;36.80;;;;;;4917642;29;20375;-72
2023/05/26 07:30:29;;;;;;;;;;;33.70;36.40;;;;;;4918039;29;20014;-72
2023/05/26 07:32:55;;;;;;;;;;;33.80;38.60;;;;;;4917734;29;19930;-72
2023/05/26 07:35:22;;;;;;;;;;;33.80;37.40;;;;;;4917168;29;19923;-72
2023/05/26 07:37:49;;;;;;;;;;;33.30;38.40;;;;;;4917730;29;19926;-73
2023/05/26 07:40:17;;;;;;;;;;;33.10;38.00;;;;;;4917814;29;19950;-71
2023/05/26 07:42:44;;;;;;;;;;;32.80;38.90;;;;;;4917716;29;19979;-71
2023/05/26 07:45:11;;;;;;;;;;;32.50;39.50;;;;;;4917360;29;20395;-71
2023/05/26 07:47:37;;;;;;;;;;;32.30;38.50;;;;;;4917731;29;19955;-71
2023/05/26 07:50:04;;;;;;;;;;;31.40;38.60;;;;;;4917917;29;19923;-71
2023/05/26 07:52:31;;;;;;;;;;;30.30;39.80;;;;;;4917361;29;20345;-70
2023/05/26 07:54:58;;;;;;;;;;;29.50;40.50;;;;;;4917911;29;19974;-70
2023/05/26 07:57:25;;;;;;;;;;;28.70;42.00;;;;;;4917519;29;20378;-70
2023/05/26 07:59:52;;;;;;;;;;;27.60;44.40;;;;;;4917571;29;19923;-70
2023/05/26 08:02:19;;;;;;;;;;;26.90;45.10;;;;;;4917714;29;19923;-70
2023/05/26 08:04:45;;;;;;;;;;;26.30;46.70;;;;;;4917677;29;19923;-70
2023/05/26 08:07:12;;;;;;;;;;;25.80;46.70;;;;;;4917486;29;19975;-70
2023/05/26 08:09:38;;;;;;;;;;;25.40;46.90;;;;;;4917634;29;20008;-70
2023/05/26 08:12:06;;;;;;;;;;;24.70;48.50;;;;;;4917207;29;20390;-70
2023/05/26 08:14:34;;;;;;;;;;;24.00;49.70;;;;;;4917558;29;19927;-70
2023/05/26 08:17:01;;;;;;;;;;;23.60;50.80;;;;;;4917498;29;19952;-69
2023/05/26 08:19:28;;;;;;;;;;;23.20;51.80;;;;;;4917507;29;19930;-69
2023/05/26 08:21:54;;;;;;;;;;;23.00;53.90;;;;;;4917212;29;20356;-69
2023/05/26 08:24:22;;;;;;;;;;;22.80;53.80;;;;;;4917534;29;19923;-68
2023/05/26 08:26:49;;;;;;;;;;;22.60;55.30;;;;;;4917463;29;19974;-70
2023/05/26 08:29:15;;;;;;;;;;;22.50;55.00;;;;;;4917400;29;19923;-69
2023/05/26 08:31:43;;;;;;;;;;;22.40;55.10;;;;;;4917367;29;19923;-68
2023/05/26 08:34:10;;;;;;;;;;;22.20;56.20;;;;;;4917396;29;19926;-69
2023/05/26 08:36:36;;;;;;;;;;;21.90;57.60;;;;;;4917243;29;19956;-69
2023/05/26 08:39:03;;;;;;;;;;;21.90;59.10;;;;;;4917332;29;19923;-69
2023/05/26 08:41:34;;;;;;;;;;;21.90;61.00;;;;;;4917119;29;20399;-69
2023/05/26 08:44:02;;;;;;;;;;;21.90;58.70;;;;;;4917399;29;19923;-69
2023/05/26 08:46:30;;;;;;;;;;;22.00;57.70;;;;;;4919831;29;19923;-69
2023/05/26 08:48:58;;;;;;;;;;;22.00;58.70;;;;;;4920843;29;19927;-70
2023/05/26 08:51:24;;;;;;;;;;;22.10;58.40;;;;;;4920671;29;19923;-70
2023/05/26 08:53:51;;;;;;;;;;;22.10;59.00;;;;;;4920842;29;19930;-70
2023/05/26 08:56:18;;;;;;;;;;;22.10;57.70;;;;;;4920600;29;19923;-70
2023/05/26 08:58:45;;;;;;;;;;;22.10;57.50;;;;;;4920304;29;19930;-71
2023/05/26 09:01:11;;;;;;;;;;;22.10;57.10;;;;;;4919145;29;20435;-71
2023/05/26 09:03:38;;;;;;;;;;;22.00;56.60;;;;;;4919436;29;20299;-71
2023/05/26 09:06:06;;;;;;;;;;;21.90;56.40;;;;;;4919021;29;19923;-70
2023/05/26 09:08:32;;;;;;;;;;;21.80;56.90;;;;;;4919308;29;19946;-70
2023/05/26 09:11:04;;;;;;;;;;;21.50;56.30;;;;;;4918992;29;20394;-70
2023/05/26 09:13:32;;;;;;;;;;;21.30;56.80;;;;;;4919257;29;19923;-69
2023/05/26 09:16:00;;;;;;;;;;;21.20;57.70;;;;;;4918856;29;20307;-69
2023/05/26 09:18:26;;;;;;;;;;;21.30;58.20;;;;;;4919222;29;19986;-69
2023/05/26 09:20:53;;;;;;;;;;;21.30;59.20;;;;;;4918861;29;20398;-69
2023/05/26 09:23:22;;;;;;;;;;;21.40;58.90;;;;;;4918978;29;20295;-69
2023/05/26 09:25:51;;;;;;;;;;;21.40;59.10;;;;;;4918996;29;19923;-69
2023/05/26 09:28:20;;;;;;;;;;;21.50;61.30;;;;;;4919055;29;19927;-69
2023/05/26 09:30:47;;;;;;;;;;;21.50;62.10;;;;;;4918789;29;20372;-70
2023/05/26 09:33:14;;;;;;;;;;;21.40;58.50;;;;;;4918624;29;19923;-70
2023/05/26 09:35:41;;;;;;;;;;;21.30;59.10;;;;;;4918993;29;20377;-70
2023/05/26 09:38:08;;;;;;;;;;;21.30;60.30;;;;;;4918831;29;19922;-69
2023/05/26 09:40:40;;;;;;;;;;;21.30;58.70;;;;;;4919258;29;19923;-69
2023/05/26 09:43:07;;;;;;;;;;;21.20;59.10;;;;;;4918836;29;19923;-69
2023/05/26 09:45:34;;;;;;;;;;;21.20;60.40;;;;;;4918870;29;19927;-69
2023/05/26 09:48:02;;;;;;;;;;;21.20;59.80;;;;;;4918732;29;19958;-68
2023/05/26 09:50:30;;;;;;;;;;;21.20;60.60;;;;;;4918685;29;19930;-69
2023/05/26 09:52:57;;;;;;;;;;;21.30;62.20;;;;;;4918709;29;19930;-69
2023/05/26 09:55:24;;;;;;;;;;;21.50;63.70;;;;;;4918618;29;19930;-68
2023/05/26 09:57:52;;;;;;;;;;;21.60;63.50;;;;;;4918132;29;19923;-71
2023/05/26 10:00:20;;;;;;;;;;;21.70;62.60;;;;;;4884413;29;1032162;-71
2023/05/26 10:02:48;;;;;;;;;;;21.70;59.60;;;;;;4919688;29;19923;-71
2023/05/26 10:05:14;;;;;;;;;;;21.70;59.80;;;;;;4920745;29;19927;-71
2023/05/26 10:07:42;;;;;;;;;;;21.70;60.10;;;;;;4919254;29;19923;-71
2023/05/26 10:10:11;;;;;;;;;;;21.80;60.40;;;;;;4919802;29;19927;-71
2023/05/26 10:12:38;;;;;;;;;;;21.60;59.40;;;;;;4919260;29;19927;-74
2023/05/26 10:15:07;;;;;;;;;;;21.60;60.10;;;;;;4919657;29;20036;-74
2023/05/26 10:17:34;;;;;;;;;;;21.50;59.50;;;;;;4920529;29;20302;-74
2023/05/26 10:20:01;;;;;;;;;;;21.40;59.90;;;;;;4919704;29;19931;-75
2023/05/26 10:22:29;;;;;;;;;;;21.30;62.30;;;;;;4919427;29;20013;-75
2023/05/26 10:24:58;;;;;;;;;;;21.30;61.60;;;;;;4919607;29;19930;-75
2023/05/26 10:27:27;;;;;;;;;;;21.30;63.00;;;;;;4919967;29;20319;-75
2023/05/26 10:29:55;;;;;;;;;;;21.40;61.50;;;;;;4920590;29;19963;-75
2023/05/26 10:32:40;;;;;;;;;;;21.50;61.70;;;;;;4919861;29;19955;-76
2023/05/26 10:37:46;;;;;;;;;;;21.80;63.20;;;;;;5134362;23;20268;-73
